Time;durP1;ratioP1;P1;durP2;ratioP2;P2;SDS_P1;SDS_P2;PMS_P1;PMS_P2;Temp;Humidity;BMP_temperature;BMP_pressure;BME280_temperature;BME280_humidity;BME280_pressure;Samples;Min_cycle;Max_cycle;Signal;HPM_P1;HPM_P2
2021/10/01 00:02:04;;;;;;;156.40;43.73;;;;;;;12.27;82.08;101241.69;5107615;28;20497;-64
2021/10/01 00:04:33;;;;;;;163.47;43.83;;;;;;;12.34;81.70;101253.78;5107064;28;20444;-66
2021/10/01 00:07:01;;;;;;;147.10;39.83;;;;;;;12.35;81.68;101250.13;5104611;28;20455;-66
2021/10/01 00:09:29;;;;;;;149.00;46.60;;;;;;;12.33;81.55;101257.44;5104202;28;20570;-66
2021/10/01 00:11:58;;;;;;;144.30;43.17;;;;;;;12.34;81.81;101251.09;5107291;28;20550;-66
2021/10/01 00:14:28;;;;;;;148.70;42.40;;;;;;;12.37;81.78;101254.44;5106513;28;20456;-67
2021/10/01 00:16:57;;;;;;;124.03;38.03;;;;;;;12.40;81.40;101247.97;5106944;28;20244;-66
2021/10/01 00:19:28;;;;;;;142.83;44.00;;;;;;;12.21;81.05;101213.31;5106523;28;20447;-66
2021/10/01 00:21:56;;;;;;;154.43;46.97;;;;;;;12.41;81.01;101263.16;5106913;28;20886;-66
2021/10/01 00:24:24;;;;;;;138.43;44.47;;;;;;;12.41;80.79;101265.88;5106114;28;20845;-66
2021/10/01 00:26:53;;;;;;;143.83;46.10;;;;;;;12.40;81.33;101258.75;5104319;28;20468;-66
2021/10/01 00:29:21;;;;;;;157.87;44.10;;;;;;;12.46;80.91;101269.09;5106848;28;20552;-66
2021/10/01 00:31:49;;;;;;;150.43;47.23;;;;;;;12.42;80.86;101267.59;5102316;28;20448;-66
2021/10/01 00:34:17;;;;;;;133.13;42.47;;;;;;;12.53;80.17;101278.50;5082084;28;20457;-66
2021/10/01 00:36:47;;;;;;;124.10;38.20;;;;;;;12.44;80.09;101274.59;5114759;28;20444;-66
2021/10/01 00:39:15;;;;;;;158.57;46.53;;;;;;;12.44;80.14;101284.50;5105300;28;20856;-66
2021/10/01 00:41:44;;;;;;;155.53;37.67;;;;;;;12.30;80.38;101242.34;5103273;28;20983;-65
2021/10/01 00:44:12;;;;;;;163.80;46.10;;;;;;;12.47;80.09;101272.66;5104981;28;20528;-66
2021/10/01 00:46:41;;;;;;;148.50;37.17;;;;;;;12.46;80.11;101281.72;5114261;27;20531;-66
2021/10/01 00:49:09;;;;;;;147.83;40.50;;;;;;;12.43;80.03;101280.94;5109379;27;20549;-66
2021/10/01 00:51:39;;;;;;;144.63;36.60;;;;;;;12.42;80.20;101289.13;5115735;27;20479;-66
2021/10/01 00:54:10;;;;;;;141.57;38.37;;;;;;;12.43;79.44;101290.88;5098403;28;20442;-67
2021/10/01 00:56:39;;;;;;;146.10;38.07;;;;;;;12.42;79.50;101287.31;5112838;28;20510;-66
2021/10/01 00:59:08;;;;;;;145.30;40.50;;;;;;;12.47;79.23;101292.38;5112442;28;20476;-66
2021/10/01 01:01:36;;;;;;;149.67;41.03;;;;;;;12.42;79.69;101299.91;5107765;28;20491;-66
2021/10/01 01:04:08;;;;;;;150.27;42.70;;;;;;;12.47;79.54;101311.25;5112987;28;20406;-66
2021/10/01 01:06:47;;;;;;;137.23;40.53;;;;;;;12.47;79.19;101305.84;5093175;28;20569;-67
2021/10/01 01:09:26;;;;;;;149.93;45.23;;;;;;;12.50;79.39;101308.34;5101486;28;20477;-67
2021/10/01 01:12:07;;;;;;;119.63;39.83;;;;;;;12.53;79.21;101312.66;5091155;28;20845;-65
2021/10/01 01:14:40;;;;;;;124.97;41.70;;;;;;;12.52;79.03;101317.19;5098781;28;20505;-65
2021/10/01 01:17:15;;;;;;;165.00;49.20;;;;;;;12.53;79.54;101305.44;5098747;28;20798;-65
2021/10/01 01:19:59;;;;;;;164.73;45.13;;;;;;;12.49;77.50;101313.84;5104199;27;20730;-65
2021/10/01 01:22:37;;;;;;;163.27;50.40;;;;;;;12.52;77.41;101322.56;5088676;28;20811;-65
2021/10/01 01:25:28;;;;;;;158.03;46.23;;;;;;;12.66;77.70;101325.22;5097344;28;20495;-65
2021/10/01 01:28:07;;;;;;;147.70;44.80;;;;;;;12.63;76.23;101325.44;5100688;28;20505;-65
2021/10/01 01:30:40;;;;;;;150.73;47.13;;;;;;;12.50;76.11;101321.81;5130099;27;20536;-65
2021/10/01 01:33:14;;;;;;;148.27;44.30;;;;;;;12.59;75.84;101334.69;5087275;27;20421;-66
2021/10/01 01:35:44;;;;;;;158.07;44.77;;;;;;;12.58;75.91;101335.66;5104747;27;20452;-66
2021/10/01 01:38:16;;;;;;;159.87;43.37;;;;;;;12.57;75.50;101336.63;5118120;27;20967;-66
2021/10/01 01:40:50;;;;;;;141.83;41.80;;;;;;;12.58;76.05;101332.97;5098345;28;20462;-66
2021/10/01 01:43:19;;;;;;;140.03;44.10;;;;;;;12.47;74.18;101324.72;5086910;28;20466;-66
2021/10/01 01:45:48;;;;;;;166.50;47.37;;;;;;;12.44;74.78;101333.88;5110424;27;20488;-67
2021/10/01 01:48:19;;;;;;;169.80;51.23;;;;;;;12.44;74.60;101330.31;5118766;27;20474;-66
2021/10/01 01:50:49;;;;;;;167.37;48.00;;;;;;;12.39;74.92;101337.84;5096448;28;20515;-67
2021/10/01 01:53:19;;;;;;;169.03;49.10;;;;;;;12.31;74.98;101340.16;5109444;28;20937;-66
2021/10/01 01:55:48;;;;;;;165.27;43.83;;;;;;;12.26;75.01;101353.06;5111535;28;20924;-66
2021/10/01 01:58:19;;;;;;;169.50;49.27;;;;;;;12.16;75.68;101346.53;5109716;28;20464;-66
2021/10/01 02:01:07;;;;;;;162.73;45.97;;;;;;;12.08;76.07;101347.91;5098764;28;20559;-66
2021/10/01 02:03:45;;;;;;;133.43;40.40;;;;;;;12.10;76.24;101347.81;5111277;28;20440;-66
2021/10/01 02:06:17;;;;;;;92.07;29.60;;;;;;;12.20;75.91;101348.94;5094098;28;20502;-66
2021/10/01 02:08:47;;;;;;;171.77;49.53;;;;;;;12.12;75.79;101346.75;5110271;28;20213;-66
2021/10/01 02:11:18;;;;;;;167.20;43.57;;;;;;;12.05;76.39;101348.09;5112370;28;20682;-66
2021/10/01 02:13:47;;;;;;;168.80;46.30;;;;;;;11.90;75.66;101346.38;5094106;28;20508;-64
2021/10/01 02:16:18;;;;;;;169.53;46.50;;;;;;;11.95;76.07;101343.41;5093799;28;20459;-64
2021/10/01 02:18:49;;;;;;;168.83;47.27;;;;;;;11.93;76.01;101354.25;5112327;28;20456;-64
2021/10/01 02:21:20;;;;;;;166.97;45.13;;;;;;;11.84;76.50;101345.91;5093735;28;20435;-64
2021/10/01 02:23:49;;;;;;;165.07;44.47;;;;;;;11.90;76.52;101349.06;5112303;28;20424;-64
2021/10/01 02:29:19;;;;;;;165.83;43.70;;;;;;;11.62;76.74;101359.81;5088750;28;20460;-64
2021/10/01 02:31:58;;;;;;;170.60;50.53;;;;;;;11.56;77.16;101349.44;5112004;28;20483;-64
2021/10/01 02:34:34;;;;;;;170.13;49.83;;;;;;;11.60;76.89;101356.34;5110335;28;21325;-64
2021/10/01 02:37:08;;;;;;;165.17;43.00;;;;;;;11.64;77.64;101365.97;5110532;28;20459;-64
2021/10/01 02:39:41;;;;;;;166.87;45.57;;;;;;;11.66;77.19;101364.06;5093392;28;20559;-64
2021/10/01 02:42:11;;;;;;;165.77;45.17;;;;;;;11.66;77.92;101366.75;5111335;28;20471;-64
2021/10/01 02:44:42;;;;;;;167.90;47.00;;;;;;;11.65;77.26;101373.97;5089276;28;20850;-64
2021/10/01 02:47:11;;;;;;;144.27;36.87;;;;;;;11.59;77.47;101370.75;5110166;28;20489;-64
2021/10/01 02:49:44;;;;;;;142.00;41.10;;;;;;;11.64;77.64;101363.28;5110357;28;20452;-64
2021/10/01 02:52:19;;;;;;;160.60;45.17;;;;;;;11.57;77.81;101367.28;5093223;28;20484;-64
2021/10/01 02:54:53;;;;;;;142.60;43.43;;;;;;;11.68;77.55;101364.81;5093310;28;20907;-64
2021/10/01 02:57:24;;;;;;;135.67;41.03;;;;;;;11.61;77.69;101369.69;5092919;28;20550;-64
2021/10/01 02:59:54;;;;;;;119.30;37.23;;;;;;;11.69;77.97;101369.25;5109477;28;20456;-64
2021/10/01 03:02:23;;;;;;;117.77;36.13;;;;;;;11.49;78.07;101336.38;5109907;28;20463;-64
2021/10/01 03:04:57;;;;;;;164.13;39.43;;;;;;;11.68;78.38;101362.13;5111504;28;20433;-64
2021/10/01 03:07:28;;;;;;;165.90;40.07;;;;;;;11.68;78.44;101368.38;5126701;27;20456;-64
2021/10/01 03:09:57;;;;;;;167.87;42.93;;;;;;;11.65;78.20;101362.34;5109334;28;20943;-67
2021/10/01 03:12:27;;;;;;;166.17;40.73;;;;;;;11.79;78.45;101392.81;5107375;28;20533;-67
2021/10/01 03:14:56;;;;;;;167.30;43.20;;;;;;;11.77;78.14;101386.63;5099123;28;20849;-67
2021/10/01 03:17:25;;;;;;;170.87;48.23;;;;;;;11.82;78.18;101376.47;5109563;28;20512;-67
2021/10/01 03:19:56;;;;;;;166.77;42.30;;;;;;;11.95;77.38;101391.88;5108591;28;20522;-67
2021/10/01 03:22:31;;;;;;;168.80;44.87;;;;;;;11.79;77.90;101392.81;5104209;27;20697;-66
2021/10/01 03:25:00;;;;;;;171.97;49.27;;;;;;;11.86;78.23;101389.72;5109856;28;21034;-66
2021/10/01 03:27:32;;;;;;;169.73;49.77;;;;;;;11.85;77.81;101394.25;5108413;28;20551;-66
2021/10/01 03:30:04;;;;;;;170.80;50.17;;;;;;;11.83;78.15;101382.72;5091756;28;20448;-66
2021/10/01 03:32:33;;;;;;;146.70;38.43;;;;;;;11.91;77.89;101393.84;5110051;28;21027;-66
2021/10/01 03:35:05;;;;;;;170.33;47.63;;;;;;;11.86;77.70;101384.34;5108385;28;20444;-65
2021/10/01 03:37:34;;;;;;;169.40;46.60;;;;;;;11.85;78.17;101390.69;5090726;28;20537;-66
2021/10/01 03:40:05;;;;;;;162.30;39.77;;;;;;;11.92;78.30;101389.34;5108951;28;20472;-65
2021/10/01 03:42:34;;;;;;;145.10;36.17;;;;;;;11.90;78.00;101389.44;5091395;28;20513;-66
2021/10/01 03:45:02;;;;;;;165.00;40.07;;;;;;;11.95;78.57;101395.44;5091362;28;20452;-66
2021/10/01 03:47:31;;;;;;;164.03;39.53;;;;;;;11.92;78.68;101390.22;5090866;28;20475;-66
2021/10/01 03:49:59;;;;;;;165.40;41.27;;;;;;;12.01;78.14;101403.09;5090981;28;21019;-66
2021/10/01 03:52:29;;;;;;;153.70;38.00;;;;;;;11.93;78.55;101394.63;5094642;28;20487;-66
2021/10/01 03:54:58;;;;;;;152.17;37.30;;;;;;;11.88;78.27;101402.13;5090406;28;20451;-66
2021/10/01 03:57:27;;;;;;;157.77;39.07;;;;;;;11.86;78.12;101395.97;5090671;28;20550;-66
2021/10/01 03:59:55;;;;;;;147.00;37.07;;;;;;;11.81;78.52;101400.78;5107899;28;20464;-66
2021/10/01 04:02:24;;;;;;;163.37;40.13;;;;;;;11.76;78.81;101398.34;5090461;28;20463;-67
2021/10/01 04:04:53;;;;;;;162.40;39.13;;;;;;;11.65;78.44;101382.03;5109575;28;20785;-66
2021/10/01 04:07:21;;;;;;;172.90;54.33;;;;;;;11.66;78.30;101380.19;5105631;28;21386;-67
2021/10/01 04:09:51;;;;;;;172.93;54.40;;;;;;;11.66;78.54;101407.09;5129664;27;20463;-67
2021/10/01 04:12:19;;;;;;;158.37;49.20;;;;;;;11.60;78.99;101408.31;5113674;27;20523;-67
2021/10/01 04:14:48;;;;;;;157.13;47.13;;;;;;;11.57;78.93;101410.34;5108811;28;20475;-65
2021/10/01 04:17:17;;;;;;;170.10;52.23;;;;;;;11.57;79.30;101413.03;5103347;28;20456;-65
2021/10/01 04:19:45;;;;;;;156.33;47.57;;;;;;;11.52;79.36;101405.25;5094838;27;20850;-66
2021/10/01 04:22:14;;;;;;;171.43;52.03;;;;;;;11.48;79.68;101414.47;5076162;28;20489;-66
2021/10/01 04:25:16;;;;;;;159.77;46.23;;;;;;;11.55;78.89;101405.06;5055795;28;20536;-66
2021/10/01 04:27:45;;;;;;;149.47;38.40;;;;;;;11.55;78.96;101406.88;5103123;28;20559;-65
2021/10/01 04:30:14;;;;;;;147.50;44.60;;;;;;;11.38;79.86;101400.72;5086327;28;20936;-65
2021/10/01 04:32:46;;;;;;;139.07;41.90;;;;;;;11.41;79.94;101413.13;5076836;28;20493;-64
2021/10/01 04:35:14;;;;;;;156.23;44.67;;;;;;;11.37;79.81;101407.06;5077962;28;20493;-64
2021/10/01 04:37:42;;;;;;;149.07;44.50;;;;;;;11.06;79.77;101345.34;5082861;28;20474;-64
2021/10/01 04:40:11;;;;;;;116.33;33.00;;;;;;;11.35;80.63;101408.09;5096657;28;20624;-64
2021/10/01 04:42:41;;;;;;;163.47;39.47;;;;;;;10.85;81.15;101352.84;5088291;28;20436;-64
2021/10/01 04:45:10;;;;;;;159.47;39.20;;;;;;;11.19;81.09;101405.47;5095987;28;20464;-64
2021/10/01 04:47:39;;;;;;;149.50;36.50;;;;;;;11.05;81.87;101392.00;5086695;28;20467;-65
2021/10/01 04:50:08;;;;;;;109.63;32.93;;;;;;;11.08;81.51;101410.63;5072332;28;20456;-64
2021/10/01 04:52:36;;;;;;;108.27;32.43;;;;;;;11.13;81.54;101408.53;5090700;28;20483;-65
2021/10/01 04:55:05;;;;;;;115.67;31.97;;;;;;;11.13;81.85;101414.75;5087905;28;20484;-64
2021/10/01 04:57:34;;;;;;;113.73;31.40;;;;;;;10.97;82.08;101396.94;5083700;28;20453;-66
2021/10/01 05:00:33;;;;;;;137.97;35.73;;;;;;;11.01;82.68;101418.16;5027809;28;20467;-65
2021/10/01 05:03:21;;;;;;;149.10;39.80;;;;;;;10.99;82.81;101417.38;5079109;28;20472;-66
2021/10/01 05:06:18;;;;;;;151.87;38.87;;;;;;;10.99;82.91;101419.19;5098484;28;20475;-66
2021/10/01 05:09:12;;;;;;;152.30;38.40;;;;;;;11.02;83.19;101419.91;5080131;28;20440;-66
2021/10/01 05:12:03;;;;;;;151.90;38.77;;;;;;;11.04;82.77;101420.69;5078506;28;20957;-65
2021/10/01 05:14:50;;;;;;;136.57;35.70;;;;;;;11.01;82.98;101426.22;5085184;28;20446;-65
2021/10/01 05:17:40;;;;;;;147.63;35.30;;;;;;;10.90;82.36;101374.94;5076808;28;20579;-65
2021/10/01 05:20:27;;;;;;;146.87;37.10;;;;;;;11.24;82.22;101432.06;5085859;28;20802;-64
2021/10/01 05:23:01;;;;;;;157.17;38.80;;;;;;;11.13;82.48;101435.41;5091948;28;20963;-65
2021/10/01 05:25:30;;;;;;;155.77;39.20;;;;;;;11.23;82.18;101441.94;5102781;28;20838;-65
2021/10/01 05:27:58;;;;;;;144.93;37.23;;;;;;;10.84;82.40;101376.16;5101106;28;20558;-64
2021/10/01 05:30:26;;;;;;;160.23;40.10;;;;;;;11.29;82.41;101436.19;5114235;28;20542;-66
2021/10/01 05:32:56;;;;;;;169.17;41.97;;;;;;;11.28;81.92;101444.38;5099182;28;20998;-64
2021/10/01 05:35:25;;;;;;;170.20;43.23;;;;;;;11.38;81.63;101441.06;5104094;28;20497;-65
2021/10/01 05:37:53;;;;;;;168.37;41.47;;;;;;;11.51;81.46;101436.66;5108134;28;20447;-65
2021/10/01 05:40:21;;;;;;;169.20;42.43;;;;;;;11.38;81.80;101434.81;5106795;28;20448;-65
2021/10/01 05:42:49;;;;;;;168.00;41.27;;;;;;;11.58;80.95;101431.75;5093172;28;20448;-65
2021/10/01 05:45:18;;;;;;;167.23;40.90;;;;;;;11.57;80.80;101439.94;5094375;28;20440;-65
2021/10/01 05:48:07;;;;;;;167.30;41.43;;;;;;;11.61;80.53;101436.94;5111717;27;20443;-64
2021/10/01 05:50:55;;;;;;;166.03;40.90;;;;;;;11.68;80.21;101440.16;5110461;28;20446;-64
2021/10/01 05:53:59;;;;;;;164.47;39.70;;;;;;;11.76;79.54;101451.31;5111476;28;20438;-65
2021/10/01 05:56:46;;;;;;;167.43;44.20;;;;;;;11.63;79.66;101439.56;5111481;28;20451;-66
2021/10/01 05:59:26;;;;;;;171.23;50.50;;;;;;;11.73;79.57;101446.13;5080121;28;20974;-66
2021/10/01 06:01:57;;;;;;;165.77;48.80;;;;;;;11.69;79.26;101449.97;5092940;28;20452;-65
2021/10/01 06:04:27;;;;;;;147.87;44.73;;;;;;;11.64;79.53;101444.00;5110973;28;20447;-65
2021/10/01 06:06:55;;;;;;;140.40;35.30;;;;;;;11.62;80.27;101444.06;5111136;28;20505;-65
2021/10/01 06:09:24;;;;;;;131.47;37.40;;;;;;;11.72;79.57;101449.78;5110469;28;20961;-65
2021/10/01 06:11:52;;;;;;;156.63;40.07;;;;;;;11.69;79.64;101450.84;5111064;28;20490;-65
2021/10/01 06:14:22;;;;;;;164.80;42.93;;;;;;;11.68;80.15;101456.31;5110531;28;20503;-65
2021/10/01 06:16:52;;;;;;;166.63;44.77;;;;;;;11.75;80.20;101460.34;5111050;28;20436;-65
2021/10/01 06:19:22;;;;;;;169.13;51.60;;;;;;;11.69;80.41;101471.50;5110486;28;20542;-66
2021/10/01 06:21:54;;;;;;;164.13;45.10;;;;;;;11.74;80.37;101461.31;5110727;28;20863;-66
2021/10/01 06:24:22;;;;;;;168.60;51.70;;;;;;;11.80;80.01;101460.97;5110152;28;20458;-66
2021/10/01 06:26:51;;;;;;;163.17;47.33;;;;;;;11.84;80.19;101469.72;5110783;28;21206;-67
2021/10/01 06:29:19;;;;;;;168.30;50.90;;;;;;;11.96;79.97;101459.06;5110325;28;20444;-67
2021/10/01 06:31:47;;;;;;;166.10;50.67;;;;;;;12.13;79.00;101476.84;5110777;28;20489;-67
2021/10/01 06:34:16;;;;;;;167.70;51.23;;;;;;;12.16;79.32;101470.41;5110077;28;20813;-67
2021/10/01 06:36:45;;;;;;;164.60;49.37;;;;;;;12.29;79.67;101476.75;5110677;28;20451;-67
2021/10/01 06:39:14;;;;;;;165.20;49.00;;;;;;;12.41;79.38;101471.44;5110164;28;20474;-66
2021/10/01 06:41:43;;;;;;;164.17;48.60;;;;;;;12.51;78.57;101476.25;5109131;28;20527;-67
2021/10/01 06:44:16;;;;;;;167.33;50.27;;;;;;;12.44;78.48;101470.38;5110402;28;20444;-66
2021/10/01 06:46:48;;;;;;;167.93;50.47;;;;;;;12.53;78.17;101469.78;5110633;28;20479;-66
2021/10/01 06:49:29;;;;;;;166.90;49.37;;;;;;;12.77;78.07;101470.03;5110012;28;20444;-67
2021/10/01 08:20:49;;;;;;;167.97;49.77;;;;;;;13.47;70.64;101434.81;5108725;28;20455;-67
2021/10/01 08:23:17;;;;;;;169.20;50.40;;;;;;;13.51;71.32;101425.56;5108522;28;20454;-67
2021/10/01 08:25:46;;;;;;;159.53;47.73;;;;;;;13.53;71.38;101434.41;5108480;28;20486;-67
2021/10/01 08:28:14;;;;;;;158.30;48.10;;;;;;;13.59;71.73;101426.75;5107262;28;20865;-67
2021/10/01 08:31:00;;;;;;;155.53;47.63;;;;;;;13.41;71.75;101429.84;5108403;28;20446;-67
2021/10/01 08:33:32;;;;;;;149.73;46.80;;;;;;;13.45;71.36;101434.06;5108208;28;21001;-67
2021/10/01 08:36:00;;;;;;;146.93;46.10;;;;;;;13.44;71.38;101424.22;5108465;28;20820;-67
2021/10/01 08:38:28;;;;;;;154.57;47.20;;;;;;;13.45;72.43;101417.84;5108192;28;20851;-67
2021/10/01 08:40:58;;;;;;;157.00;48.03;;;;;;;13.36;72.59;101387.84;5108624;28;20454;-67
2021/10/01 08:43:27;;;;;;;163.13;52.30;;;;;;;13.61;72.05;101421.25;5107881;28;20461;-67
2021/10/01 08:45:55;;;;;;;163.50;50.87;;;;;;;13.70;72.09;101427.81;5090395;28;20487;-66
2021/10/01 08:48:24;;;;;;;138.20;44.53;;;;;;;13.61;72.02;101414.00;5108083;28;20509;-65
2021/10/01 08:50:54;;;;;;;147.43;43.57;;;;;;;13.51;72.21;101414.75;5108504;28;20440;-65
2021/10/01 08:53:22;;;;;;;154.67;48.57;;;;;;;13.53;73.40;101420.91;5089747;28;20562;-65
2021/10/01 08:55:51;;;;;;;164.10;48.77;;;;;;;13.57;72.46;101430.53;5108555;28;20459;-65
2021/10/01 08:58:21;;;;;;;163.60;48.57;;;;;;;13.55;72.97;101419.84;5090046;28;20551;-65
2021/10/01 09:00:50;;;;;;;165.70;50.00;;;;;;;13.57;71.55;101419.72;5108642;28;20853;-65
2021/10/01 09:03:18;;;;;;;155.93;46.07;;;;;;;13.65;72.16;101415.53;5108187;28;20455;-65
2021/10/01 09:05:47;;;;;;;136.97;43.80;;;;;;;13.62;72.17;101417.56;5108193;28;20444;-65
2021/10/01 09:08:19;;;;;;;159.53;47.00;;;;;;;13.53;71.76;101402.88;5110271;28;20448;-65
2021/10/01 09:10:57;;;;;;;159.77;47.90;;;;;;;13.61;70.36;101407.75;5110518;28;20497;-65
2021/10/01 09:13:26;;;;;;;169.13;51.43;;;;;;;13.39;71.03;101385.91;5127741;27;20490;-65
2021/10/01 09:16:05;;;;;;;173.53;54.73;;;;;;;13.64;70.26;101396.72;5112133;28;20448;-65
2021/10/01 09:18:36;;;;;;;170.40;50.77;;;;;;;13.75;70.39;101410.31;5111917;28;21139;-64
2021/10/01 09:21:09;;;;;;;174.20;53.70;;;;;;;13.79;70.48;101395.66;5093616;28;20512;-65
2021/10/01 09:23:45;;;;;;;131.50;42.13;;;;;;;13.76;70.65;101395.00;5111814;28;20946;-65
2021/10/01 09:26:19;;;;;;;125.83;38.87;;;;;;;13.78;69.82;101391.25;5111636;28;20513;-65
2021/10/01 09:28:51;;;;;;;165.07;49.57;;;;;;;13.65;69.88;101388.53;5110738;28;20555;-65
2021/10/01 09:31:47;;;;;;;149.43;46.30;;;;;;;13.79;70.65;101405.59;5111519;28;20545;-65
2021/10/01 09:34:17;;;;;;;146.37;45.50;;;;;;;13.76;71.39;101401.25;5093050;28;20488;-65
2021/10/01 09:36:59;;;;;;;157.10;50.70;;;;;;;13.77;71.25;101394.88;5111888;28;20448;-65
2021/10/01 09:39:31;;;;;;;174.13;52.03;;;;;;;13.67;71.69;101402.78;5111278;28;20771;-65
2021/10/01 09:42:00;;;;;;;174.17;52.73;;;;;;;13.67;72.13;101394.69;5111584;28;20863;-64
2021/10/01 09:44:30;;;;;;;159.67;47.90;;;;;;;13.68;72.75;101391.00;5111239;28;20470;-64
2021/10/01 09:46:58;;;;;;;144.30;42.97;;;;;;;13.58;73.76;101378.28;5111833;28;20454;-65
2021/10/01 09:49:32;;;;;;;170.60;51.57;;;;;;;13.60;73.75;101392.53;5093055;28;20464;-65
2021/10/01 09:52:02;;;;;;;170.33;50.57;;;;;;;13.62;73.15;101395.97;5111555;28;20452;-65
2021/10/01 09:54:32;;;;;;;164.77;48.67;;;;;;;13.61;73.79;101394.25;5110921;28;20830;-65
2021/10/01 09:57:02;;;;;;;171.87;51.87;;;;;;;13.53;73.04;101396.63;5109944;28;20575;-65
2021/10/01 09:59:32;;;;;;;157.93;47.30;;;;;;;13.57;72.97;101380.09;5110975;28;20473;-65
2021/10/01 10:02:03;;;;;;;155.53;39.30;;;;;;;13.63;72.90;101385.06;5111172;28;20444;-65
2021/10/01 10:04:34;;;;;;;163.30;49.00;;;;;;;13.62;73.45;101387.88;5110939;28;20543;-65
2021/10/01 10:07:13;;;;;;;155.23;47.43;;;;;;;13.62;72.94;101379.78;5111442;28;20851;-65
2021/10/01 10:09:44;;;;;;;163.20;48.57;;;;;;;13.67;73.49;101385.72;5111085;28;20443;-65
2021/10/01 10:12:15;;;;;;;155.17;48.87;;;;;;;13.67;73.12;101372.22;5110999;28;20863;-65
2021/10/01 10:14:50;;;;;;;166.30;52.33;;;;;;;13.65;72.44;101374.16;5111136;28;20524;-65
2021/10/01 10:17:22;;;;;;;169.03;50.90;;;;;;;13.65;72.28;101372.31;5110211;28;20860;-65
2021/10/01 10:19:52;;;;;;;168.90;51.27;;;;;;;13.71;72.01;101373.72;5110742;28;20448;-65
2021/10/01 10:22:21;;;;;;;170.43;52.60;;;;;;;13.66;72.02;101340.81;5109040;28;20456;-64
2021/10/01 10:24:51;;;;;;;162.50;49.37;;;;;;;13.98;72.15;101371.75;5110579;28;20480;-65
2021/10/01 10:27:23;;;;;;;167.23;51.07;;;;;;;13.94;72.25;101381.06;5110545;28;20452;-65
2021/10/01 10:29:52;;;;;;;163.33;48.63;;;;;;;14.06;72.26;101375.75;5110656;28;20422;-65
2021/10/01 10:32:24;;;;;;;138.53;43.53;;;;;;;14.12;72.33;101362.69;5110463;28;20456;-65
2021/10/01 10:34:55;;;;;;;137.50;42.60;;;;;;;14.16;72.59;101374.97;5110711;28;20476;-65
2021/10/01 10:37:36;;;;;;;169.33;48.30;;;;;;;14.21;71.07;101362.00;5110428;28;20479;-66
2021/10/01 10:40:09;;;;;;;161.37;49.43;;;;;;;14.24;70.46;101369.00;5096273;28;20442;-65
2021/10/01 10:42:40;;;;;;;167.07;49.10;;;;;;;14.37;70.83;101360.84;5110157;28;21110;-65
2021/10/01 10:45:24;;;;;;;182.10;53.90;;;;;;;14.41;69.93;101363.25;5096657;28;20440;-66
2021/10/01 10:47:58;;;;;;;182.73;56.40;;;;;;;14.53;68.73;101356.94;5110286;28;20421;-66
2021/10/01 10:50:36;;;;;;;181.23;55.57;;;;;;;14.52;68.52;101349.81;5109911;28;20923;-66
2021/10/01 10:53:16;;;;;;;178.67;53.17;;;;;;;14.63;69.22;101356.25;5110459;28;20929;-66
2021/10/01 10:55:56;;;;;;;180.30;54.43;;;;;;;14.67;68.40;101347.78;5110329;28;20490;-65
2021/10/01 10:58:46;;;;;;;175.23;48.23;;;;;;;14.76;67.65;101346.25;5109842;28;20939;-65
2021/10/01 11:01:36;;;;;;;166.73;51.07;;;;;;;14.91;68.83;101358.59;5098384;28;20581;-65
2021/10/01 11:04:39;;;;;;;163.17;50.43;;;;;;;14.96;67.00;101348.28;5109956;28;20436;-65
2021/10/01 11:07:10;;;;;;;181.27;51.17;;;;;;;15.01;65.70;101356.09;5109886;28;20875;-65
2021/10/01 11:09:39;;;;;;;182.43;52.03;;;;;;;15.00;64.87;101355.22;5108284;28;20958;-65
2021/10/01 11:12:28;;;;;;;152.97;48.03;;;;;;;15.09;66.53;101351.81;5109904;28;20793;-65
2021/10/01 11:15:20;;;;;;;154.43;46.50;;;;;;;14.73;65.38;101287.88;5108571;28;20527;-65
2021/10/01 11:18:15;;;;;;;163.37;50.50;;;;;;;15.15;64.82;101340.50;5109521;28;21034;-65
2021/10/01 11:20:43;;;;;;;181.37;55.27;;;;;;;15.23;65.54;101348.88;5109696;28;20503;-65
2021/10/01 11:23:17;;;;;;;177.83;54.27;;;;;;;15.16;64.76;101338.66;5109783;28;20448;-65
2021/10/01 11:25:46;;;;;;;142.37;44.13;;;;;;;15.23;65.82;101340.75;5109232;28;21016;-65
2021/10/01 11:28:17;;;;;;;159.90;52.30;;;;;;;14.91;66.00;101283.75;5109567;28;20999;-65
2021/10/01 11:30:53;;;;;;;182.10;57.13;;;;;;;15.21;65.16;101337.31;5109123;28;20451;-65
2021/10/01 11:33:21;;;;;;;177.07;55.53;;;;;;;15.19;65.41;101324.88;5095782;28;20472;-65
2021/10/01 11:35:54;;;;;;;163.60;52.10;;;;;;;15.27;64.08;101340.50;5109511;28;20483;-65
2021/10/01 11:38:27;;;;;;;160.30;50.97;;;;;;;15.26;64.41;101333.38;5109088;28;20479;-65
2021/10/01 11:41:10;;;;;;;164.53;54.47;;;;;;;15.26;64.92;101331.53;5109474;28;20872;-65
2021/10/01 11:43:52;;;;;;;184.90;57.43;;;;;;;15.20;63.28;101327.47;5096288;28;20485;-65
2021/10/01 11:46:37;;;;;;;187.93;60.27;;;;;;;15.30;62.97;101329.44;5108836;28;20534;-65
2021/10/01 11:49:15;;;;;;;190.00;57.30;;;;;;;14.97;62.79;101268.88;5109189;28;20484;-65
2021/10/01 11:51:58;;;;;;;190.30;59.97;;;;;;;15.36;62.98;101320.88;5094920;28;20477;-65
2021/10/01 11:54:26;;;;;;;186.10;56.13;;;;;;;15.39;62.62;101320.63;5090467;28;20559;-65
2021/10/01 11:56:57;;;;;;;171.90;52.70;;;;;;;15.44;62.70;101315.72;5108899;28;20494;-65
2021/10/01 11:59:47;;;;;;;189.40;58.17;;;;;;;15.39;61.82;101324.19;5108612;28;20478;-65
2021/10/01 12:02:32;;;;;;;184.87;57.10;;;;;;;15.43;61.26;101320.25;5108470;28;20456;-65
2021/10/01 12:05:18;;;;;;;180.30;54.60;;;;;;;15.53;61.75;101314.97;5090740;28;20460;-65
2021/10/01 12:07:47;;;;;;;165.47;46.20;;;;;;;15.45;59.89;101317.44;5108787;28;20450;-64
2021/10/01 12:10:16;;;;;;;183.47;47.37;;;;;;;15.52;60.98;101324.06;5109015;28;20449;-64
2021/10/01 12:13:05;;;;;;;186.03;50.03;;;;;;;15.45;60.82;101318.28;5108775;28;20447;-64
2021/10/01 12:15:43;;;;;;;187.17;47.90;;;;;;;15.51;60.84;101322.34;5090230;28;20482;-64
2021/10/01 12:18:34;;;;;;;175.97;48.13;;;;;;;15.64;62.05;101306.91;5108635;28;20661;-64
2021/10/01 12:21:05;;;;;;;171.30;51.87;;;;;;;15.72;61.80;101317.13;5108843;28;20547;-65
2021/10/01 12:23:36;;;;;;;171.43;48.47;;;;;;;15.66;62.28;101321.19;5107364;28;20460;-64
2021/10/01 12:26:23;;;;;;;183.80;46.03;;;;;;;15.63;60.91;101316.03;5108527;28;20848;-65
2021/10/01 12:29:02;;;;;;;183.43;48.03;;;;;;;15.50;60.20;101304.38;5108806;28;20900;-65
2021/10/01 12:31:44;;;;;;;166.57;46.80;;;;;;;15.60;62.28;101307.25;5108171;28;20511;-65
2021/10/01 12:34:17;;;;;;;173.83;48.47;;;;;;;15.65;62.90;101308.63;5107449;28;20467;-65
2021/10/01 12:36:48;;;;;;;176.47;44.40;;;;;;;15.72;63.19;101317.13;5095190;28;20484;-65
2021/10/01 12:39:17;;;;;;;153.63;39.27;;;;;;;15.67;62.31;101305.81;5108687;28;20458;-65
2021/10/01 12:41:45;;;;;;;170.07;46.37;;;;;;;15.67;62.28;101301.25;5108595;28;21002;-65
2021/10/01 12:44:16;;;;;;;165.17;47.93;;;;;;;15.64;62.48;101295.22;5113232;28;20444;-65
2021/10/01 12:46:49;;;;;;;160.93;41.57;;;;;;;15.63;62.22;101307.91;5112790;28;20440;-65
2021/10/01 12:49:23;;;;;;;179.77;54.03;;;;;;;15.69;63.18;101295.72;5112669;28;20541;-65
2021/10/01 12:52:13;;;;;;;179.63;53.33;;;;;;;15.75;62.65;101300.63;5112371;28;20453;-65
2021/10/01 12:54:48;;;;;;;166.43;49.73;;;;;;;15.50;61.98;101252.97;5112357;28;20894;-65
2021/10/01 12:57:19;;;;;;;166.87;47.10;;;;;;;15.80;62.54;101293.84;5093861;28;20447;-64
2021/10/01 12:59:49;;;;;;;153.13;43.47;;;;;;;15.77;62.19;101295.94;5112462;28;20448;-64
2021/10/01 13:02:22;;;;;;;167.77;48.20;;;;;;;15.75;62.04;101293.34;5112034;28;20548;-64